Terminal Aerodrome Forecast
Issued by NWS Charleston, WV

Current Version | Previous Version | Graphics & Text | Print | Product List | Glossary On
Versions: 1 2 3 4 5 6 7 8 9 10 11 12 13 14 15 16 17 18 19 20 21 22 23 24 25 26
000
FTUS41 KRLX 292339
TAFEKN
TAF
KEKN 292339Z 3000/3024 20006KT P6SM BKN050
     FM300100 18005KT P6SM VCTS BKN045CB
     FM300200 18006KT 3SM SHRA VCTS BKN035CB
     FM300800 21007KT 1SM BR BKN010
     FM301300 23005KT 5SM BR BKN025
     FM301400 23005KT P6SM BKN025
     FM301600 24006KT P6SM VCTS BKN035CB=

USA.gov is the U.S. government's official web portal to all federal, state and local government web resources and services.